createdAt,value
2019-03-08T00:01:35.968Z,6.60
2019-03-08T00:04:05.514Z,6.60
2019-03-08T00:06:35.071Z,6.60
2019-03-08T00:09:05.853Z,6.60
2019-03-08T00:11:35.394Z,6.60
2019-03-08T00:14:04.996Z,6.50
2019-03-08T00:16:34.535Z,6.60
2019-03-08T00:19:04.352Z,6.50
2019-03-08T00:21:35.391Z,6.60
2019-03-08T00:24:04.990Z,6.60
2019-03-08T00:26:34.539Z,6.60
2019-03-08T00:29:04.085Z,6.50
2019-03-08T00:31:33.856Z,6.60
2019-03-08T00:34:03.472Z,6.60
2019-03-08T00:36:33.105Z,6.60
2019-03-08T00:39:03.093Z,6.60
2019-03-08T00:41:33.480Z,6.60
2019-03-08T00:44:03.083Z,6.60
2019-03-08T00:46:32.543Z,6.60
2019-03-08T00:49:02.004Z,6.70
2019-03-08T00:51:31.472Z,6.70
2019-03-08T00:54:00.920Z,6.70
2019-03-08T00:56:30.375Z,6.70
2019-03-08T00:58:59.948Z,6.70
2019-03-08T01:01:29.419Z,6.80
2019-03-08T01:03:58.955Z,6.80
2019-03-08T01:06:28.487Z,6.90
2019-03-08T01:08:58.017Z,6.90
2019-03-08T01:11:27.494Z,7.00
2019-03-08T01:13:57.355Z,7.00
2019-03-08T01:16:27.185Z,7.00
2019-03-08T01:18:56.684Z,7.10
2019-03-08T01:21:26.141Z,7.10
2019-03-08T01:23:55.577Z,7.10
2019-03-08T01:26:25.259Z,7.10
2019-03-08T01:28:54.757Z,7.10
2019-03-08T01:31:24.224Z,7.10
2019-03-08T01:33:53.716Z,7.10
2019-03-08T01:36:23.420Z,7.10
2019-03-08T01:38:53.570Z,7.10
2019-03-08T01:41:23.180Z,7.00
2019-03-08T01:43:52.671Z,7.00
2019-03-08T01:46:22.240Z,7.10
2019-03-08T01:48:51.683Z,7.00
2019-03-08T01:51:21.159Z,7.00
2019-03-08T01:53:50.686Z,7.00
2019-03-08T01:56:20.145Z,7.00
2019-03-08T01:58:49.716Z,7.00
2019-03-08T02:01:19.323Z,7.00
2019-03-08T02:03:48.830Z,7.10
2019-03-08T02:06:18.294Z,7.10
2019-03-08T02:08:47.712Z,7.00
2019-03-08T02:11:17.240Z,7.00
2019-03-08T02:13:46.741Z,7.00
2019-03-08T02:16:16.287Z,7.10
2019-03-08T02:18:45.823Z,7.00
2019-03-08T02:21:15.535Z,7.10
2019-03-08T02:23:45.028Z,7.10
2019-03-08T02:26:16.153Z,7.10
2019-03-08T02:28:45.658Z,7.10
2019-03-08T02:31:15.189Z,7.10
2019-03-08T02:33:44.803Z,7.10
2019-03-08T02:36:14.375Z,7.10
2019-03-08T02:38:43.875Z,7.10
2019-03-08T02:41:13.347Z,7.00
2019-03-08T02:43:42.773Z,7.00
2019-03-08T02:46:12.245Z,6.90
2019-03-08T02:48:41.988Z,7.00
2019-03-08T02:51:11.446Z,7.00
2019-03-08T02:53:41.004Z,6.90
2019-03-08T02:56:10.453Z,6.90
2019-03-08T02:58:41.420Z,6.90
2019-03-08T03:01:10.893Z,6.90
2019-03-08T03:03:40.353Z,6.80
2019-03-08T03:06:09.812Z,6.80
2019-03-08T03:08:39.399Z,6.80
2019-03-08T03:11:08.864Z,6.80
2019-03-08T03:13:38.338Z,6.70
2019-03-08T03:16:07.939Z,6.70
2019-03-08T03:18:37.341Z,6.80
2019-03-08T03:21:06.805Z,6.80
2019-03-08T03:23:36.412Z,6.80
2019-03-08T03:26:05.920Z,6.80
2019-03-08T03:28:35.703Z,6.80
2019-03-08T03:31:05.254Z,6.80
2019-03-08T03:33:34.703Z,6.80
2019-03-08T03:36:04.238Z,6.70
2019-03-08T03:38:33.712Z,6.70
2019-03-08T03:41:03.299Z,6.70
2019-03-08T03:43:33.116Z,6.70
2019-03-08T03:46:02.716Z,6.70
2019-03-08T03:48:33.027Z,6.70
2019-03-08T03:51:02.430Z,6.60
2019-03-08T03:53:31.895Z,6.60
2019-03-08T03:56:01.320Z,6.60
2019-03-08T03:58:30.715Z,6.60
2019-03-08T04:01:01.795Z,6.50
2019-03-08T04:03:31.256Z,6.50
2019-03-08T04:06:00.679Z,6.50
2019-03-08T04:08:30.143Z,6.50
2019-03-08T04:10:59.574Z,6.50
2019-03-08T04:13:28.960Z,6.50
2019-03-08T04:15:58.387Z,6.50
2019-03-08T04:18:27.846Z,6.50
2019-03-08T04:20:57.272Z,6.50
2019-03-08T04:23:26.723Z,6.50
2019-03-08T04:25:56.151Z,6.50
2019-03-08T04:28:25.621Z,6.50
2019-03-08T04:30:55.104Z,6.40
2019-03-08T04:33:24.635Z,6.30
2019-03-08T04:35:54.066Z,6.20
2019-03-08T04:38:23.761Z,6.20
2019-03-08T04:40:54.897Z,6.20
2019-03-08T04:43:24.413Z,6.20
2019-03-08T04:45:53.963Z,6.20
2019-03-08T04:48:23.604Z,6.30
2019-03-08T04:50:53.236Z,6.20
2019-03-08T04:53:22.755Z,6.30
2019-03-08T04:55:52.319Z,6.40
2019-03-08T04:58:21.788Z,6.40
2019-03-08T05:00:51.310Z,6.40
2019-03-08T05:03:20.867Z,6.40
2019-03-08T05:05:50.425Z,6.30
2019-03-08T05:08:19.844Z,6.30
2019-03-08T05:10:49.375Z,6.30
2019-03-08T05:13:18.816Z,6.30
2019-03-08T05:15:48.266Z,6.30
2019-03-08T05:18:17.695Z,6.20
2019-03-08T05:20:47.493Z,6.10
2019-03-08T05:23:16.946Z,6.00
2019-03-08T05:25:46.411Z,6.00
2019-03-08T05:28:15.967Z,6.00
2019-03-08T05:30:45.427Z,5.90
2019-03-08T05:33:15.156Z,6.00
2019-03-08T05:35:44.614Z,6.00
2019-03-08T05:38:14.245Z,6.10
2019-03-08T05:40:43.850Z,6.10
2019-03-08T05:43:13.290Z,6.20
2019-03-08T05:45:42.800Z,6.20
2019-03-08T05:48:12.335Z,6.30
2019-03-08T05:50:41.935Z,6.30
2019-03-08T05:53:11.394Z,6.30
2019-03-08T05:55:41.111Z,6.30
2019-03-08T05:58:10.626Z,6.20
2019-03-08T06:00:40.169Z,6.10
2019-03-08T06:03:09.595Z,6.00
2019-03-08T06:05:41.449Z,6.00
2019-03-08T06:08:10.939Z,5.90
2019-03-08T06:10:40.439Z,5.80
2019-03-08T06:13:09.941Z,5.80
2019-03-08T06:15:39.623Z,5.70
2019-03-08T06:18:09.130Z,5.70
2019-03-08T06:20:38.598Z,5.80
2019-03-08T06:23:07.961Z,5.80
2019-03-08T06:25:37.499Z,5.90
2019-03-08T06:28:06.937Z,6.10
2019-03-08T06:30:36.843Z,6.10
2019-03-08T06:33:06.373Z,6.10
2019-03-08T06:35:35.935Z,6.20
2019-03-08T06:38:05.442Z,6.30
2019-03-08T06:40:34.939Z,6.20
2019-03-08T06:43:04.435Z,6.20
2019-03-08T06:45:33.894Z,6.20
2019-03-08T06:48:03.343Z,6.30
2019-03-08T06:50:32.868Z,6.40
2019-03-08T06:53:02.364Z,6.20
2019-03-08T06:55:31.896Z,6.00
2019-03-08T06:58:03.269Z,5.80
2019-03-08T07:00:40.789Z,5.80
2019-03-08T07:03:10.351Z,5.90
2019-03-08T07:05:39.809Z,6.00
2019-03-08T07:08:09.245Z,6.10
2019-03-08T07:10:38.771Z,6.10
2019-03-08T07:13:08.219Z,6.20
2019-03-08T07:15:37.688Z,6.30
2019-03-08T07:18:12.682Z,6.50
2019-03-08T07:20:57.871Z,6.50
2019-03-08T07:23:34.996Z,6.60
2019-03-08T07:26:18.421Z,6.50
2019-03-08T07:29:04.416Z,6.50
2019-03-08T07:31:41.152Z,6.50
2019-03-08T07:34:18.257Z,6.70
2019-03-08T07:37:05.973Z,6.80
2019-03-08T07:39:43.001Z,7.00
2019-03-08T07:42:14.105Z,7.20
2019-03-08T07:44:45.175Z,7.50
2019-03-08T07:47:25.049Z,7.80
2019-03-08T07:50:12.887Z,7.30
2019-03-08T07:52:43.999Z,6.80
2019-03-08T07:55:15.068Z,6.40
2019-03-08T07:57:58.569Z,6.20
2019-03-08T08:00:38.619Z,6.20
2019-03-08T08:03:12.745Z,6.40
2019-03-08T08:05:43.783Z,6.40
2019-03-08T08:08:23.993Z,6.60
2019-03-08T08:11:11.659Z,6.70
2019-03-08T08:13:42.837Z,6.80
2019-03-08T08:16:29.032Z,6.90
2019-03-08T08:19:02.858Z,7.00
2019-03-08T08:21:52.757Z,7.20
2019-03-08T08:24:36.391Z,7.30
2019-03-08T08:27:16.456Z,7.40
2019-03-08T08:29:53.667Z,7.30
2019-03-08T08:32:27.696Z,7.30
2019-03-08T08:34:58.803Z,7.30
2019-03-08T08:37:45.319Z,7.40
2019-03-08T08:40:22.689Z,7.40
2019-03-08T08:43:09.236Z,7.40
2019-03-08T08:45:40.357Z,7.40
2019-03-08T08:48:11.463Z,7.30
2019-03-08T08:50:42.787Z,7.30
2019-03-08T08:53:19.743Z,7.30
2019-03-08T08:55:51.144Z,7.30
2019-03-08T08:58:24.860Z,7.30
2019-03-08T09:01:04.833Z,7.30
2019-03-08T09:03:44.973Z,7.30
2019-03-08T09:06:16.157Z,7.60
2019-03-08T09:08:49.914Z,8.30
2019-03-08T09:11:27.051Z,8.60
2019-03-08T09:13:58.267Z,8.80
2019-03-08T09:16:35.370Z,8.70
2019-03-08T09:19:25.203Z,8.60
2019-03-08T09:24:56.909Z,9.00
2019-03-08T09:27:31.113Z,9.40
2019-03-08T09:30:08.372Z,9.10
2019-03-08T09:32:48.542Z,9.30
2019-03-08T09:35:22.372Z,9.30
2019-03-08T09:38:05.255Z,9.20
2019-03-08T09:40:42.166Z,9.40
2019-03-08T09:43:25.459Z,10.20
2019-03-08T09:45:59.823Z,10.00
2019-03-08T09:48:34.214Z,10.20
2019-03-08T09:54:09.048Z,12.00
2019-03-08T09:56:44.289Z,13.00
2019-03-08T09:59:24.249Z,12.10
2019-03-08T10:01:58.361Z,10.90
2019-03-08T10:04:32.319Z,10.10
2019-03-08T10:07:03.407Z,9.20
2019-03-08T10:09:37.216Z,8.90
2019-03-08T10:12:08.349Z,8.80
2019-03-08T10:14:45.127Z,9.30
2019-03-08T10:17:19.128Z,10.20
2019-03-08T10:19:50.204Z,10.20
2019-03-08T10:22:27.651Z,9.80
2019-03-08T10:25:14.171Z,9.40
2019-03-08T10:27:45.257Z,9.50
2019-03-08T10:30:19.103Z,9.50
2019-03-08T10:32:53.245Z,9.30
2019-03-08T10:38:22.866Z,9.50
2019-03-08T10:40:52.584Z,9.90
2019-03-08T10:43:26.866Z,10.00
2019-03-08T10:46:15.460Z,11.20
2019-03-08T10:48:56.907Z,12.00
2019-03-08T10:51:28.142Z,12.20
2019-03-08T10:54:06.920Z,12.70
2019-03-08T10:56:54.787Z,12.70
2019-03-08T10:59:25.914Z,12.40
2019-03-08T11:02:06.610Z,11.40
2019-03-08T11:07:23.794Z,10.30
2019-03-08T11:09:54.884Z,10.00
2019-03-08T11:12:42.573Z,9.90
2019-03-08T11:15:23.922Z,9.70
2019-03-08T11:17:53.812Z,9.70
2019-03-08T11:25:55.485Z,10.70
2019-03-08T11:28:45.018Z,10.60
2019-03-08T11:31:22.264Z,11.00
2019-03-08T11:34:10.005Z,11.10
2019-03-08T11:39:33.519Z,11.80
2019-03-08T11:42:13.932Z,12.00
2019-03-08T11:45:01.614Z,11.40
2019-03-08T11:47:49.379Z,10.80
2019-03-08T11:50:20.656Z,11.20
2019-03-08T11:52:54.672Z,11.30
2019-03-08T11:58:20.606Z,11.10
2019-03-08T12:00:53.222Z,11.40
2019-03-08T12:03:42.809Z,12.20
2019-03-08T12:06:22.845Z,12.70
2019-03-08T12:08:54.218Z,11.70
2019-03-08T12:11:41.581Z,11.30
2019-03-08T12:14:29.113Z,10.80
2019-03-08T12:19:47.442Z,10.70
2019-03-08T12:22:21.514Z,10.50
2019-03-08T12:24:55.943Z,10.30
2019-03-08T12:27:43.471Z,10.30
2019-03-08T12:30:27.146Z,10.40
2019-03-08T12:33:14.514Z,10.40
2019-03-08T12:35:48.479Z,10.70
2019-03-08T12:38:28.943Z,11.90
2019-03-08T12:41:00.013Z,12.10
2019-03-08T12:43:31.192Z,11.30
2019-03-08T12:46:02.382Z,11.20
2019-03-08T12:48:42.334Z,11.40
2019-03-08T12:51:16.566Z,11.60
2019-03-08T12:53:47.679Z,11.30
2019-03-08T12:56:22.844Z,11.00
2019-03-08T12:58:58.480Z,10.70
2019-03-08T13:01:29.735Z,10.40
2019-03-08T13:04:16.206Z,10.40
2019-03-08T13:06:50.327Z,10.30
2019-03-08T13:09:33.536Z,10.20
2019-03-08T13:12:03.194Z,10.10
2019-03-08T13:14:32.646Z,9.90
2019-03-08T13:17:02.214Z,9.90
2019-03-08T13:19:31.774Z,9.90
2019-03-08T13:22:01.386Z,10.00
2019-03-08T13:24:30.782Z,10.20
2019-03-08T13:27:00.250Z,10.10
2019-03-08T13:29:29.667Z,10.30
2019-03-08T13:31:59.213Z,10.00
2019-03-08T13:34:28.906Z,10.00
2019-03-08T13:36:58.368Z,10.00
2019-03-08T13:39:27.948Z,9.90
2019-03-08T13:41:57.395Z,10.00
2019-03-08T13:44:26.823Z,10.20
2019-03-08T13:46:56.409Z,10.60
2019-03-08T13:49:25.875Z,11.00
2019-03-08T13:51:55.338Z,11.90
2019-03-08T13:54:24.763Z,11.50
2019-03-08T13:56:55.788Z,11.40
2019-03-08T13:59:25.214Z,11.70
2019-03-08T14:01:54.966Z,11.80
2019-03-08T14:04:24.496Z,11.20
2019-03-08T14:06:53.972Z,11.20
2019-03-08T14:09:23.444Z,11.20
2019-03-08T14:11:52.912Z,11.40
2019-03-08T14:14:22.395Z,11.90
2019-03-08T14:16:51.785Z,11.80
2019-03-08T14:19:22.786Z,11.10
2019-03-08T14:21:52.263Z,11.00
2019-03-08T14:24:21.752Z,10.80
2019-03-08T14:26:51.300Z,11.20
2019-03-08T14:29:22.340Z,11.40
2019-03-08T14:31:53.717Z,11.50
2019-03-08T14:34:23.184Z,11.60
2019-03-08T14:36:52.686Z,11.70
2019-03-08T14:39:22.266Z,11.40
2019-03-08T14:41:54.656Z,10.90
2019-03-08T14:44:44.283Z,10.80
2019-03-08T14:47:18.339Z,11.60
2019-03-08T14:49:47.787Z,11.30
2019-03-08T14:52:17.188Z,11.10
2019-03-08T14:54:47.822Z,10.60
2019-03-08T14:57:26.820Z,10.10
2019-03-08T14:59:49.227Z,9.80
2019-03-08T15:02:19.547Z,9.90
2019-03-08T15:04:49.025Z,9.90
2019-03-08T15:07:41.095Z,9.80
2019-03-08T15:10:13.496Z,9.80
2019-03-08T15:12:48.888Z,9.80
2019-03-08T15:15:16.084Z,9.70
2019-03-08T15:17:49.612Z,9.60
2019-03-08T15:20:18.999Z,9.40
2019-03-08T15:22:48.900Z,9.40
2019-03-08T15:25:18.387Z,9.40
2019-03-08T15:27:47.861Z,9.90
2019-03-08T15:30:18.717Z,10.20
2019-03-08T15:32:48.279Z,9.80
2019-03-08T15:35:18.053Z,9.50
2019-03-08T15:37:47.636Z,9.30
2019-03-08T15:40:38.083Z,9.40
2019-03-08T15:43:09.684Z,9.60
2019-03-08T15:45:40.142Z,9.70
2019-03-08T15:48:11.054Z,9.60
2019-03-08T15:50:42.921Z,9.40
2019-03-08T15:53:13.660Z,9.10
2019-03-08T15:55:52.631Z,9.00
2019-03-08T15:58:16.079Z,8.70
2019-03-08T16:00:45.680Z,8.60
2019-03-08T16:03:15.292Z,8.50
2019-03-08T16:05:46.283Z,8.40
2019-03-08T16:08:15.949Z,8.30
2019-03-08T16:10:45.562Z,8.10
2019-03-08T16:13:15.107Z,8.00
2019-03-08T16:15:44.575Z,8.00
2019-03-08T16:18:14.078Z,7.90
2019-03-08T16:20:43.616Z,7.80
2019-03-08T16:23:13.343Z,7.70
2019-03-08T16:25:47.469Z,7.70
2019-03-08T16:28:14.012Z,7.70
2019-03-08T16:30:48.941Z,7.60
2019-03-08T16:33:47.219Z,7.60
2019-03-08T16:36:21.335Z,7.50
2019-03-08T16:39:08.713Z,7.50
2019-03-08T16:41:42.546Z,7.40
2019-03-08T16:44:17.402Z,7.40
2019-03-08T16:46:48.445Z,7.30
2019-03-08T16:49:19.940Z,7.30
2019-03-08T16:52:00.203Z,7.20
2019-03-08T16:54:34.142Z,7.20
2019-03-08T16:57:14.237Z,7.20
2019-03-08T16:59:51.598Z,7.10
2019-03-08T17:02:28.973Z,7.00
2019-03-08T17:05:05.899Z,7.00
2019-03-08T17:07:53.436Z,6.90
2019-03-08T17:10:36.632Z,6.90
2019-03-08T17:13:10.392Z,6.80
2019-03-08T17:15:41.663Z,6.80
2019-03-08T17:18:18.784Z,6.70
2019-03-08T17:20:53.044Z,6.70
2019-03-08T17:23:39.194Z,6.70
2019-03-08T17:29:08.451Z,6.70
2019-03-08T17:31:51.379Z,6.60
2019-03-08T17:34:25.336Z,6.60
2019-03-08T17:36:59.171Z,6.50
2019-03-08T17:39:30.302Z,6.50
2019-03-08T17:42:04.423Z,6.50
2019-03-08T17:44:41.448Z,6.40
2019-03-08T17:47:12.558Z,6.40
2019-03-08T17:49:49.756Z,6.30
2019-03-08T17:52:39.376Z,6.20
2019-03-08T17:55:22.605Z,6.30
2019-03-08T17:58:10.090Z,6.30
2019-03-08T18:00:45.656Z,6.20
2019-03-08T18:03:16.823Z,6.20
2019-03-08T18:09:09.571Z,6.20
2019-03-08T18:11:49.569Z,6.20
2019-03-08T18:14:20.735Z,6.20
2019-03-08T18:17:00.604Z,6.20
2019-03-08T18:19:31.706Z,6.20
2019-03-08T18:22:02.707Z,6.10
2019-03-08T18:27:34.449Z,6.20
2019-03-08T18:30:07.573Z,6.20
2019-03-08T18:32:41.707Z,6.10
2019-03-08T18:35:21.948Z,6.10
2019-03-08T18:37:56.278Z,6.00
2019-03-08T18:40:45.748Z,6.00
2019-03-08T18:43:33.448Z,6.00
2019-03-08T18:46:15.165Z,6.10
2019-03-08T18:48:49.020Z,6.10
2019-03-08T18:54:21.025Z,6.10
2019-03-08T18:57:10.571Z,6.10
2019-03-08T19:02:34.058Z,6.20
2019-03-08T19:05:05.787Z,6.30
2019-03-08T19:07:42.807Z,6.30
2019-03-08T19:10:13.993Z,6.30
2019-03-08T19:12:54.206Z,6.30
2019-03-08T19:15:25.493Z,6.20
2019-03-08T19:17:59.528Z,6.10
2019-03-08T19:20:30.983Z,6.00
2019-03-08T19:23:02.188Z,6.00
2019-03-08T19:25:46.083Z,6.00
2019-03-08T19:28:22.959Z,5.90
2019-03-08T19:31:10.462Z,5.90
2019-03-08T19:33:41.866Z,5.80
2019-03-08T19:36:13.048Z,5.80
2019-03-08T19:39:00.562Z,5.80
2019-03-08T19:41:34.270Z,5.80
2019-03-08T19:44:11.199Z,5.70
2019-03-08T19:46:42.551Z,5.70
2019-03-08T19:49:30.165Z,5.60
2019-03-08T19:52:13.079Z,5.60
2019-03-08T19:54:50.174Z,5.50
2019-03-08T19:57:27.402Z,5.50
2019-03-08T20:00:01.156Z,5.40
2019-03-08T20:02:41.574Z,5.40
2019-03-08T20:05:06.081Z,5.40
2019-03-08T20:07:42.706Z,5.30
2019-03-08T20:10:16.722Z,5.30
2019-03-08T20:12:49.560Z,5.20
2019-03-08T20:15:20.789Z,5.20
2019-03-08T20:17:54.904Z,5.20
2019-03-08T20:20:37.995Z,5.20
2019-03-08T20:23:09.298Z,5.10
2019-03-08T20:25:40.378Z,5.00
2019-03-08T20:28:14.268Z,5.00
2019-03-08T20:31:02.037Z,5.00
2019-03-08T20:33:54.142Z,5.10
2019-03-08T20:36:31.535Z,5.10
2019-03-08T20:39:05.569Z,5.10
2019-03-08T20:41:36.571Z,5.20
2019-03-08T20:44:13.716Z,5.20
2019-03-08T20:46:47.807Z,5.30
2019-03-08T20:49:19.005Z,5.40
2019-03-08T20:51:48.583Z,5.40
2019-03-08T20:54:18.108Z,5.40
2019-03-08T20:56:47.812Z,5.40
2019-03-08T20:59:17.351Z,5.50
2019-03-08T21:01:46.772Z,5.50
2019-03-08T21:04:16.163Z,5.50
2019-03-08T21:06:45.660Z,5.50
2019-03-08T21:09:15.320Z,5.50
2019-03-08T21:11:46.499Z,5.50
2019-03-08T21:14:15.890Z,5.40
2019-03-08T21:16:45.272Z,5.40
2019-03-08T21:19:14.771Z,5.40
2019-03-08T21:21:44.197Z,5.40
2019-03-08T21:24:13.763Z,5.40
2019-03-08T21:26:43.192Z,5.40
2019-03-08T21:29:12.685Z,5.40
2019-03-08T21:31:42.100Z,5.40
2019-03-08T21:34:11.565Z,5.40
2019-03-08T21:36:40.985Z,5.40
2019-03-08T21:39:10.539Z,5.40
2019-03-08T21:41:40.027Z,5.40
2019-03-08T21:44:09.841Z,5.50
2019-03-08T21:46:39.346Z,5.60
2019-03-08T21:49:08.899Z,5.60
2019-03-08T21:51:38.441Z,5.70
2019-03-08T21:54:07.972Z,5.80
2019-03-08T21:56:37.325Z,5.80
2019-03-08T21:59:06.793Z,5.90
2019-03-08T22:01:36.383Z,6.00
2019-03-08T22:04:07.483Z,6.00
2019-03-08T22:06:36.923Z,6.10
2019-03-08T22:09:14.989Z,6.10
2019-03-08T22:11:44.833Z,6.20
2019-03-08T22:14:14.495Z,6.20
2019-03-08T22:16:43.927Z,6.20
2019-03-08T22:19:13.332Z,6.30
2019-03-08T22:21:42.895Z,6.30
2019-03-08T22:24:13.750Z,6.40
2019-03-08T22:26:43.384Z,6.40
2019-03-08T22:29:12.745Z,6.40
2019-03-08T22:31:42.252Z,6.50
2019-03-08T22:34:11.691Z,6.60
2019-03-08T22:36:41.140Z,6.50
2019-03-08T22:39:10.635Z,6.50
2019-03-08T22:41:40.103Z,6.50
2019-03-08T22:44:09.536Z,6.40
2019-03-08T22:46:45.278Z,6.30
2019-03-08T22:49:10.241Z,6.20
2019-03-08T22:51:41.300Z,6.20
2019-03-08T22:54:10.715Z,6.20
2019-03-08T22:56:40.110Z,6.30
2019-03-08T22:59:09.458Z,6.30
2019-03-08T23:01:49.404Z,6.30
2019-03-08T23:04:18.997Z,6.40
2019-03-08T23:06:48.443Z,6.40
2019-03-08T23:09:18.733Z,6.40
2019-03-08T23:11:48.585Z,6.30
2019-03-08T23:14:18.022Z,6.30
2019-03-08T23:16:48.456Z,6.30
2019-03-08T23:19:18.302Z,6.30
2019-03-08T23:21:48.424Z,6.30
2019-03-08T23:24:17.873Z,6.20
2019-03-08T23:26:48.986Z,6.20
2019-03-08T23:29:25.665Z,6.20
2019-03-08T23:32:02.992Z,6.20
2019-03-08T23:34:32.649Z,6.20
2019-03-08T23:37:02.118Z,6.20
2019-03-08T23:39:33.079Z,6.20
2019-03-08T23:42:02.853Z,6.20
2019-03-08T23:44:32.335Z,6.20
2019-03-08T23:47:01.985Z,6.20
2019-03-08T23:49:33.010Z,6.20
2019-03-08T23:52:02.464Z,6.20
2019-03-08T23:54:31.943Z,6.20
2019-03-08T23:57:01.358Z,6.20
2019-03-08T23:59:30.996Z,6.20
